createdAt,value
2019-03-23T00:01:42.434Z,8.41
2019-03-23T00:03:46.808Z,8.34
2019-03-23T00:05:52.306Z,8.24
2019-03-23T00:07:56.686Z,8.21
2019-03-23T00:10:01.036Z,8.11
2019-03-23T00:12:05.578Z,8.08
2019-03-23T00:14:09.917Z,8.04
2019-03-23T00:16:15.371Z,8.04
2019-03-23T00:18:19.837Z,7.97
2019-03-23T00:20:24.112Z,7.87
2019-03-23T00:22:28.420Z,7.82
2019-03-23T00:24:32.788Z,7.74
2019-03-23T00:26:37.084Z,7.73
2019-03-23T00:28:41.471Z,7.79
2019-03-23T00:30:45.769Z,7.77
2019-03-23T00:32:50.223Z,7.73
2019-03-23T00:34:54.535Z,7.65
2019-03-23T00:36:58.864Z,7.62
2019-03-23T00:39:04.684Z,7.61
2019-03-23T00:41:09.093Z,7.54
2019-03-23T00:43:13.421Z,7.53
2019-03-23T00:45:17.740Z,7.51
2019-03-23T00:47:22.167Z,7.47
2019-03-23T00:49:27.490Z,7.42
2019-03-23T00:51:31.811Z,7.34
2019-03-23T00:53:37.170Z,7.25
2019-03-23T00:55:41.526Z,7.18
2019-03-23T00:57:45.933Z,7.21
2019-03-23T00:59:52.264Z,7.20
2019-03-23T01:01:56.655Z,7.14
2019-03-23T01:04:01.076Z,7.06
2019-03-23T01:06:05.546Z,6.98
2019-03-23T01:08:10.002Z,7.00
2019-03-23T01:10:14.628Z,7.03
2019-03-23T01:12:19.021Z,6.97
2019-03-23T01:14:24.389Z,6.93
2019-03-23T01:16:28.714Z,6.90
2019-03-23T01:18:35.184Z,6.81
2019-03-23T01:20:49.284Z,6.77
2019-03-23T01:22:46.612Z,6.71
2019-03-23T01:24:51.029Z,6.73
2019-03-23T01:26:55.444Z,6.75
2019-03-23T01:28:59.932Z,6.74
2019-03-23T01:31:06.493Z,6.78
2019-03-23T01:33:10.873Z,6.78
2019-03-23T01:35:15.292Z,6.78
2019-03-23T01:37:20.691Z,6.77
2019-03-23T01:39:26.013Z,6.75
2019-03-23T01:41:30.399Z,6.72
2019-03-23T01:43:35.775Z,6.69
2019-03-23T01:45:44.462Z,6.65
2019-03-23T01:47:49.808Z,6.57
2019-03-23T01:49:54.237Z,6.44
2019-03-23T01:51:58.714Z,6.41
2019-03-23T01:54:03.101Z,6.34
2019-03-23T01:56:07.478Z,6.30
2019-03-23T01:58:11.856Z,6.30
2019-03-23T02:00:16.387Z,6.29
2019-03-23T02:02:20.803Z,6.26
2019-03-23T02:04:25.145Z,6.16
2019-03-23T02:06:29.493Z,6.11
2019-03-23T02:08:33.817Z,6.10
2019-03-23T02:10:38.194Z,6.07
2019-03-23T02:12:43.543Z,6.04
2019-03-23T02:14:47.859Z,6.02
2019-03-23T02:16:52.174Z,6.06
2019-03-23T02:18:56.515Z,6.07
2019-03-23T02:21:01.659Z,6.02
2019-03-23T02:23:06.093Z,5.94
2019-03-23T02:25:10.716Z,5.87
2019-03-23T02:27:16.078Z,5.86
2019-03-23T02:29:20.437Z,5.84
2019-03-23T02:31:27.958Z,5.78
2019-03-23T02:33:32.301Z,5.74
2019-03-23T02:35:36.815Z,5.70
2019-03-23T02:37:42.109Z,5.66
2019-03-23T02:39:47.230Z,5.64
2019-03-23T02:41:52.704Z,5.60
2019-03-23T02:43:57.082Z,5.57
2019-03-23T02:46:01.576Z,5.51
2019-03-23T02:48:06.093Z,5.54
2019-03-23T02:50:10.982Z,5.56
2019-03-23T02:52:15.350Z,5.55
2019-03-23T02:54:19.700Z,5.50
2019-03-23T02:56:24.080Z,5.47
2019-03-23T02:58:29.437Z,5.43
2019-03-23T03:01:27.492Z,5.42
2019-03-23T03:03:31.928Z,5.41
2019-03-23T03:05:37.316Z,5.40
2019-03-23T03:07:43.512Z,5.36
2019-03-23T03:09:47.791Z,5.24
2019-03-23T03:11:53.168Z,5.17
2019-03-23T03:13:57.505Z,5.06
2019-03-23T03:16:01.927Z,4.98
2019-03-23T03:18:08.023Z,4.95
2019-03-23T03:20:12.595Z,4.96
2019-03-23T03:22:16.856Z,4.96
2019-03-23T03:24:21.259Z,4.96
2019-03-23T03:26:25.635Z,4.97
2019-03-23T03:28:32.001Z,4.97
2019-03-23T03:30:36.333Z,4.96
2019-03-23T03:32:41.836Z,4.94
2019-03-23T03:34:47.245Z,4.93
2019-03-23T03:36:51.645Z,4.90
2019-03-23T03:38:56.056Z,4.86
2019-03-23T03:41:00.344Z,4.83
2019-03-23T03:43:10.706Z,4.77
2019-03-23T03:45:22.235Z,4.75
2019-03-23T03:47:26.648Z,4.70
2019-03-23T03:49:31.087Z,4.68
2019-03-23T03:51:35.630Z,4.67
2019-03-23T03:53:41.033Z,4.61
2019-03-23T03:55:45.533Z,4.52
2019-03-23T03:57:50.095Z,4.47
2019-03-23T03:59:54.462Z,4.42
2019-03-23T04:01:58.897Z,4.37
2019-03-23T04:04:03.291Z,4.33
2019-03-23T04:06:07.655Z,4.25
2019-03-23T04:08:12.318Z,4.17
2019-03-23T04:10:16.805Z,4.08
2019-03-23T04:12:21.216Z,4.02
2019-03-23T04:14:26.606Z,3.96
2019-03-23T04:16:31.947Z,3.91
2019-03-23T04:18:37.260Z,3.91
2019-03-23T04:20:41.662Z,3.87
2019-03-23T04:22:45.936Z,3.84
2019-03-23T04:24:51.332Z,3.82
2019-03-23T04:26:55.684Z,3.80
2019-03-23T04:29:00.007Z,3.79
2019-03-23T04:31:04.461Z,3.78
2019-03-23T04:33:08.899Z,3.75
2019-03-23T04:35:14.413Z,3.72
2019-03-23T04:37:19.824Z,3.68
2019-03-23T04:39:24.259Z,3.63
2019-03-23T04:41:29.647Z,3.59
2019-03-23T04:43:33.968Z,3.58
2019-03-23T04:45:39.299Z,3.56
2019-03-23T04:47:43.689Z,3.57
2019-03-23T04:49:49.322Z,3.57
2019-03-23T04:51:54.870Z,3.59
2019-03-23T04:54:06.248Z,3.61
2019-03-23T04:56:10.768Z,3.60
2019-03-23T04:58:15.187Z,3.56
2019-03-23T05:00:20.125Z,3.51
2019-03-23T05:02:24.431Z,3.49
2019-03-23T05:04:30.704Z,3.48
2019-03-23T05:06:36.133Z,3.48
2019-03-23T05:08:41.482Z,3.48
2019-03-23T05:10:47.044Z,3.47
2019-03-23T05:12:58.224Z,3.48
2019-03-23T05:15:05.181Z,3.45
2019-03-23T05:17:10.579Z,3.42
2019-03-23T05:19:15.866Z,3.38
2019-03-23T05:21:20.321Z,3.36
2019-03-23T05:23:24.585Z,3.37
2019-03-23T05:25:30.433Z,3.39
2019-03-23T05:27:34.788Z,3.40
2019-03-23T05:29:39.111Z,3.45
2019-03-23T05:31:43.439Z,3.46
2019-03-23T05:33:48.939Z,3.47
2019-03-23T05:35:54.383Z,3.44
2019-03-23T05:37:58.796Z,3.41
2019-03-23T05:40:03.127Z,3.41
2019-03-23T05:42:07.517Z,3.42
2019-03-23T05:44:14.993Z,3.45
2019-03-23T05:46:20.397Z,3.53
2019-03-23T05:48:24.956Z,3.58
2019-03-23T05:50:29.311Z,3.64
2019-03-23T05:52:33.618Z,3.70
2019-03-23T05:54:37.972Z,3.79
2019-03-23T05:56:43.259Z,3.89
2019-03-23T05:58:47.673Z,3.96
2019-03-23T06:00:54.037Z,4.08
2019-03-23T06:03:00.416Z,4.19
2019-03-23T06:05:06.309Z,4.23
2019-03-23T06:07:10.682Z,4.25
2019-03-23T06:09:15.002Z,4.30
2019-03-23T06:11:20.343Z,4.36
2019-03-23T06:13:24.667Z,4.43
2019-03-23T06:15:29.996Z,4.51
2019-03-23T06:17:34.362Z,4.62
2019-03-23T06:19:38.737Z,4.74
2019-03-23T06:21:44.146Z,4.86
2019-03-23T06:23:48.549Z,4.99
2019-03-23T06:25:57.173Z,5.23
2019-03-23T06:28:01.492Z,5.84
2019-03-23T06:30:07.595Z,7.29
2019-03-23T06:32:12.975Z,9.19
2019-03-23T06:34:17.338Z,10.98
2019-03-23T06:36:22.687Z,12.43
2019-03-23T06:38:27.037Z,13.54
2019-03-23T06:40:31.404Z,14.22
2019-03-23T06:42:35.791Z,14.25
2019-03-23T06:44:40.113Z,13.85
2019-03-23T06:46:46.551Z,13.58
2019-03-23T06:48:50.930Z,14.01
2019-03-23T06:50:55.270Z,15.05
2019-03-23T06:52:59.631Z,16.27
2019-03-23T06:55:04.632Z,17.23
2019-03-23T06:57:09.077Z,18.17
2019-03-23T06:59:13.485Z,19.05
2019-03-23T07:01:17.832Z,19.90
2019-03-23T07:03:24.269Z,20.65
2019-03-23T07:05:28.671Z,21.20
2019-03-23T07:07:33.028Z,21.70
2019-03-23T07:09:39.416Z,21.83
2019-03-23T07:11:43.805Z,22.18
2019-03-23T07:13:48.148Z,22.83
2019-03-23T07:15:54.490Z,23.38
2019-03-23T07:17:58.839Z,23.69
2019-03-23T07:20:03.336Z,24.17
2019-03-23T07:22:07.834Z,24.51
2019-03-23T07:24:12.188Z,24.99
2019-03-23T07:26:16.707Z,25.27
2019-03-23T07:28:21.077Z,25.46
2019-03-23T07:30:25.492Z,25.63
2019-03-23T07:32:29.860Z,26.04
2019-03-23T07:34:34.221Z,26.41
2019-03-23T07:36:38.569Z,26.34
2019-03-23T07:38:42.851Z,26.05
2019-03-23T07:40:47.219Z,26.12
2019-03-23T07:42:51.600Z,26.65
2019-03-23T07:44:55.917Z,27.07
2019-03-23T07:47:00.297Z,27.45
2019-03-23T07:49:04.823Z,27.83
2019-03-23T07:51:09.312Z,28.19
2019-03-23T07:53:13.804Z,28.07
2019-03-23T07:55:18.121Z,28.32
2019-03-23T07:57:22.411Z,28.15
2019-03-23T07:59:26.719Z,27.77
2019-03-23T08:01:31.086Z,27.36
2019-03-23T08:03:35.539Z,27.20
2019-03-23T08:05:40.929Z,26.91
2019-03-23T08:07:46.410Z,26.83
2019-03-23T08:09:50.785Z,26.98
2019-03-23T08:11:56.121Z,27.40
2019-03-23T08:14:00.431Z,28.29
2019-03-23T08:16:05.845Z,28.99
2019-03-23T08:18:10.170Z,29.26
2019-03-23T08:20:19.566Z,29.49
2019-03-23T08:22:23.914Z,29.10
2019-03-23T08:24:28.293Z,28.98
2019-03-23T08:26:32.654Z,28.83
2019-03-23T08:28:37.027Z,28.33
2019-03-23T08:30:41.425Z,28.33
2019-03-23T08:32:45.773Z,29.06
2019-03-23T08:34:53.187Z,29.81
2019-03-23T08:36:58.562Z,30.27
2019-03-23T08:39:06.035Z,30.29
2019-03-23T08:41:11.341Z,30.13
2019-03-23T08:43:15.745Z,29.90
2019-03-23T08:45:20.239Z,29.89
2019-03-23T08:47:24.598Z,30.39
2019-03-23T08:49:30.964Z,30.70
2019-03-23T08:51:36.364Z,30.97
2019-03-23T08:53:42.716Z,31.27
2019-03-23T08:55:48.030Z,31.34
2019-03-23T08:57:52.370Z,30.84
2019-03-23T08:59:59.802Z,29.82
2019-03-23T09:02:04.206Z,29.55
2019-03-23T09:04:08.557Z,29.55
2019-03-23T09:06:12.932Z,29.48
2019-03-23T09:08:18.593Z,29.92
2019-03-23T09:10:23.038Z,30.11
2019-03-23T09:12:33.359Z,30.11
2019-03-23T09:14:39.776Z,29.75
2019-03-23T09:16:48.262Z,29.42
2019-03-23T09:18:52.648Z,29.31
2019-03-23T09:20:58.024Z,29.53
2019-03-23T09:23:02.357Z,29.56
2019-03-23T09:25:10.434Z,29.52
2019-03-23T09:27:15.024Z,29.43
2019-03-23T09:29:19.334Z,28.36
2019-03-23T09:31:23.744Z,27.78
2019-03-23T09:33:28.232Z,27.93
2019-03-23T09:35:34.633Z,28.19
2019-03-23T09:37:40.197Z,28.61
2019-03-23T09:39:45.686Z,29.07
2019-03-23T09:41:52.242Z,29.49
2019-03-23T09:43:56.737Z,29.94
2019-03-23T09:46:08.905Z,30.04
2019-03-23T09:48:14.436Z,30.01
2019-03-23T09:50:20.822Z,30.23
2019-03-23T09:52:27.196Z,30.59
2019-03-23T09:54:31.556Z,30.93
2019-03-23T09:56:40.006Z,30.56
2019-03-23T09:58:44.537Z,29.92
2019-03-23T10:00:49.043Z,29.33
2019-03-23T10:02:54.552Z,29.21
2019-03-23T10:04:59.141Z,29.19
2019-03-23T10:07:04.610Z,29.48
2019-03-23T10:09:09.042Z,30.22
2019-03-23T10:11:13.891Z,30.53
2019-03-23T10:13:21.393Z,30.68
2019-03-23T10:15:27.081Z,30.74
2019-03-23T10:17:31.413Z,30.83
2019-03-23T10:19:35.725Z,30.63
2019-03-23T10:21:41.044Z,30.35
2019-03-23T10:23:45.397Z,30.22
2019-03-23T10:25:49.776Z,30.48
2019-03-23T10:27:55.154Z,31.24
2019-03-23T10:29:59.592Z,31.83
2019-03-23T10:32:04.963Z,32.11
2019-03-23T10:34:09.293Z,32.09
2019-03-23T10:36:13.664Z,32.10
2019-03-23T10:38:18.066Z,31.99
2019-03-23T10:40:31.858Z,31.69
2019-03-23T10:42:28.577Z,31.70
2019-03-23T10:44:32.917Z,31.36
2019-03-23T10:46:37.215Z,31.65
2019-03-23T10:48:41.608Z,32.06
2019-03-23T10:50:45.962Z,32.27
2019-03-23T10:52:50.343Z,32.28
2019-03-23T10:54:55.723Z,32.38
2019-03-23T10:57:01.152Z,32.64
2019-03-23T10:59:05.562Z,32.78
2019-03-23T11:01:09.883Z,33.02
2019-03-23T11:03:14.307Z,33.00
2019-03-23T11:05:19.659Z,33.32
2019-03-23T11:07:24.019Z,33.76
2019-03-23T11:09:29.500Z,34.09
2019-03-23T11:11:33.835Z,33.48
2019-03-23T11:13:39.154Z,33.50
2019-03-23T11:15:44.568Z,33.70
2019-03-23T11:17:51.096Z,33.74
2019-03-23T11:19:55.559Z,33.20
2019-03-23T11:21:59.879Z,32.96
2019-03-23T11:24:04.282Z,33.05
2019-03-23T11:26:08.677Z,32.77
2019-03-23T11:28:12.949Z,32.95
2019-03-23T11:30:17.345Z,33.31
2019-03-23T11:32:21.709Z,33.50
2019-03-23T11:34:26.119Z,33.61
2019-03-23T11:36:30.507Z,33.44
2019-03-23T11:38:34.894Z,33.85
2019-03-23T11:40:39.998Z,34.49
2019-03-23T11:42:49.810Z,34.57
2019-03-23T11:44:50.639Z,34.65
2019-03-23T11:46:54.935Z,35.03
2019-03-23T11:48:59.268Z,35.21
2019-03-23T11:51:04.688Z,35.42
2019-03-23T11:53:09.112Z,35.80
2019-03-23T11:55:13.598Z,35.30
2019-03-23T11:57:18.178Z,34.91
2019-03-23T11:59:22.500Z,34.92
2019-03-23T12:01:26.835Z,35.03
2019-03-23T12:03:31.272Z,35.22
2019-03-23T12:05:35.625Z,35.68
2019-03-23T12:07:40.003Z,36.23
2019-03-23T12:09:44.358Z,37.04
2019-03-23T12:11:49.705Z,37.69
2019-03-23T12:13:54.007Z,36.90
2019-03-23T12:15:59.475Z,36.34
2019-03-23T12:18:05.888Z,36.30
2019-03-23T12:20:10.630Z,36.64
2019-03-23T12:22:17.073Z,36.97
2019-03-23T12:24:21.509Z,37.67
2019-03-23T12:26:25.938Z,37.95
2019-03-23T12:28:30.279Z,37.93
2019-03-23T12:30:34.649Z,37.59
2019-03-23T12:32:38.999Z,37.48
2019-03-23T12:34:44.366Z,36.90
2019-03-23T12:36:48.656Z,36.16
2019-03-23T12:38:52.969Z,35.64
2019-03-23T12:40:57.322Z,35.34
2019-03-23T12:43:01.706Z,34.79
2019-03-23T12:45:07.407Z,34.00
2019-03-23T12:47:11.818Z,33.52
2019-03-23T12:49:16.201Z,33.43
2019-03-23T12:51:20.545Z,33.20
2019-03-23T12:53:24.925Z,32.75
2019-03-23T12:55:29.386Z,32.94
2019-03-23T12:57:33.744Z,33.18
2019-03-23T12:59:38.043Z,32.91
2019-03-23T13:01:48.292Z,32.69
2019-03-23T13:03:52.701Z,32.91
2019-03-23T13:05:57.045Z,32.46
2019-03-23T13:08:01.340Z,32.00
2019-03-23T13:10:07.139Z,31.85
2019-03-23T13:12:11.537Z,31.92
2019-03-23T13:14:15.840Z,31.52
2019-03-23T13:16:20.205Z,31.29
2019-03-23T13:18:27.295Z,30.59
2019-03-23T13:20:30.856Z,30.06
2019-03-23T13:22:41.212Z,29.88
2019-03-23T13:24:45.595Z,29.86
2019-03-23T13:26:49.923Z,29.63
2019-03-23T13:28:54.227Z,29.83
2019-03-23T13:30:58.556Z,29.88
2019-03-23T13:33:02.854Z,30.04
2019-03-23T13:35:07.261Z,30.13
2019-03-23T13:37:11.592Z,30.16
2019-03-23T13:39:15.935Z,30.01
2019-03-23T13:41:20.399Z,29.96
2019-03-23T13:43:24.769Z,29.67
2019-03-23T13:45:29.241Z,29.29
2019-03-23T13:47:33.593Z,29.23
2019-03-23T13:49:37.894Z,29.39
2019-03-23T13:51:42.225Z,29.31
2019-03-23T13:53:46.534Z,29.25
2019-03-23T13:55:50.845Z,29.07
2019-03-23T13:57:55.252Z,28.94
2019-03-23T13:59:59.590Z,28.91
2019-03-23T14:02:04.071Z,28.82
2019-03-23T14:04:08.501Z,28.90
2019-03-23T14:06:13.834Z,29.01
2019-03-23T14:08:18.348Z,28.81
2019-03-23T14:10:23.695Z,28.53
2019-03-23T14:12:28.016Z,28.34
2019-03-23T14:14:32.311Z,28.14
2019-03-23T14:16:36.675Z,27.90
2019-03-23T14:18:41.072Z,27.73
2019-03-23T14:20:45.374Z,27.59
2019-03-23T14:22:50.763Z,27.60
2019-03-23T14:24:55.115Z,27.48
2019-03-23T14:26:59.517Z,27.38
2019-03-23T14:29:03.929Z,27.06
2019-03-23T14:31:08.292Z,26.84
2019-03-23T14:33:12.612Z,26.52
2019-03-23T14:35:17.944Z,26.42
2019-03-23T14:37:22.273Z,26.61
2019-03-23T14:39:26.651Z,26.61
2019-03-23T14:41:30.980Z,26.29
2019-03-23T14:43:35.352Z,25.96
2019-03-23T14:45:40.805Z,25.84
2019-03-23T14:47:45.189Z,25.74
2019-03-23T14:49:49.568Z,25.68
2019-03-23T14:51:53.949Z,25.61
2019-03-23T14:53:59.314Z,25.55
2019-03-23T14:56:03.688Z,25.50
2019-03-23T14:58:08.062Z,25.58
2019-03-23T15:00:12.546Z,25.71
2019-03-23T15:02:16.899Z,25.60
2019-03-23T15:04:22.245Z,25.35
2019-03-23T15:06:26.590Z,25.19
2019-03-23T15:08:31.910Z,25.21
2019-03-23T15:10:36.369Z,25.21
2019-03-23T15:12:40.735Z,25.23
2019-03-23T15:14:45.044Z,25.13
2019-03-23T15:16:49.514Z,25.02
2019-03-23T15:18:53.908Z,24.93
2019-03-23T15:20:58.319Z,24.89
2019-03-23T15:23:02.709Z,24.97
2019-03-23T15:25:07.472Z,24.96
2019-03-23T15:27:11.870Z,24.90
2019-03-23T15:29:16.173Z,24.96
2019-03-23T15:31:20.557Z,25.04
2019-03-23T15:33:25.981Z,25.12
2019-03-23T15:35:30.371Z,25.15
2019-03-23T15:37:34.850Z,25.12
2019-03-23T15:39:39.177Z,25.06
2019-03-23T15:41:43.517Z,24.97
2019-03-23T15:43:47.947Z,24.86
2019-03-23T15:45:52.310Z,24.67
2019-03-23T15:47:57.716Z,24.49
2019-03-23T15:50:02.066Z,24.42
2019-03-23T15:52:06.469Z,24.42
2019-03-23T15:54:10.905Z,24.17
2019-03-23T15:56:16.247Z,24.06
2019-03-23T15:58:20.577Z,24.12
2019-03-23T16:00:25.972Z,24.17
2019-03-23T16:02:30.327Z,24.07
2019-03-23T16:04:34.655Z,23.83
2019-03-23T16:06:38.999Z,23.73
2019-03-23T16:08:43.380Z,23.79
2019-03-23T16:10:47.724Z,23.81
2019-03-23T16:12:52.110Z,23.81
2019-03-23T16:14:57.461Z,23.74
2019-03-23T16:17:01.760Z,23.66
2019-03-23T16:19:06.156Z,23.56
2019-03-23T16:21:10.574Z,23.48
2019-03-23T16:23:15.939Z,23.38
2019-03-23T16:25:21.275Z,23.30
2019-03-23T16:27:25.595Z,23.15
2019-03-23T16:29:30.003Z,23.15
2019-03-23T16:31:34.349Z,23.07
2019-03-23T16:33:38.805Z,23.00
2019-03-23T16:35:43.154Z,22.89
2019-03-23T16:37:49.568Z,22.77
2019-03-23T16:39:53.933Z,22.71
2019-03-23T16:41:59.362Z,22.66
2019-03-23T16:44:03.685Z,22.60
2019-03-23T16:46:08.030Z,22.57
2019-03-23T16:48:12.403Z,22.51
2019-03-23T16:50:18.775Z,22.45
2019-03-23T16:52:23.170Z,22.41
2019-03-23T16:54:27.498Z,22.36
2019-03-23T16:56:31.810Z,22.25
2019-03-23T16:58:36.173Z,22.09
2019-03-23T17:00:40.604Z,21.99
2019-03-23T17:02:44.972Z,21.91
2019-03-23T17:04:51.385Z,21.83
2019-03-23T17:06:56.892Z,21.71
2019-03-23T17:09:02.230Z,21.53
2019-03-23T17:11:06.613Z,21.43
2019-03-23T17:13:12.170Z,21.39
2019-03-23T17:15:16.619Z,21.31
2019-03-23T17:17:21.027Z,21.21
2019-03-23T17:19:25.352Z,21.12
2019-03-23T17:21:29.776Z,21.01
2019-03-23T17:23:34.201Z,20.94
2019-03-23T17:25:38.655Z,20.85
2019-03-23T17:27:43.121Z,20.73
2019-03-23T17:29:47.481Z,20.62
2019-03-23T17:31:51.816Z,20.49
2019-03-23T17:33:56.195Z,20.36
2019-03-23T17:36:00.594Z,20.28
2019-03-23T17:38:05.055Z,20.17
2019-03-23T17:40:09.938Z,20.07
2019-03-23T17:42:14.305Z,20.05
2019-03-23T17:44:18.654Z,19.94
2019-03-23T17:46:23.041Z,19.56
2019-03-23T17:48:27.382Z,19.24
2019-03-23T17:50:32.316Z,19.05
2019-03-23T17:52:36.713Z,18.83
2019-03-23T17:54:41.078Z,18.67
2019-03-23T17:56:45.456Z,18.49
2019-03-23T17:58:49.820Z,18.33
2019-03-23T18:00:54.205Z,18.18
2019-03-23T18:02:58.533Z,18.04
2019-03-23T18:05:02.915Z,17.93
2019-03-23T18:07:07.308Z,17.83
2019-03-23T18:09:11.688Z,17.86
2019-03-23T18:11:16.108Z,17.78
2019-03-23T18:13:20.582Z,17.67
2019-03-23T18:15:24.907Z,17.65
2019-03-23T18:17:29.202Z,17.66
2019-03-23T18:19:33.543Z,17.56
2019-03-23T18:21:38.039Z,17.48
2019-03-23T18:23:42.552Z,17.45
2019-03-23T18:25:48.403Z,17.39
2019-03-23T18:27:52.827Z,17.30
2019-03-23T18:29:57.165Z,17.27
2019-03-23T18:32:01.486Z,17.16
2019-03-23T18:34:05.864Z,17.02
2019-03-23T18:36:10.292Z,16.89
2019-03-23T18:38:14.816Z,16.71
2019-03-23T18:40:19.338Z,16.47
2019-03-23T18:42:23.665Z,16.27
2019-03-23T18:44:27.970Z,16.05
2019-03-23T18:46:32.373Z,15.96
2019-03-23T18:48:36.797Z,15.83
2019-03-23T18:50:42.739Z,15.75
2019-03-23T18:52:48.361Z,15.68
2019-03-23T18:54:52.731Z,15.59
2019-03-23T18:56:58.159Z,15.58
2019-03-23T18:59:03.679Z,15.55
2019-03-23T19:01:08.214Z,15.58
2019-03-23T19:03:12.731Z,15.73
2019-03-23T19:05:17.089Z,15.87
2019-03-23T19:07:21.391Z,15.95
2019-03-23T19:09:26.814Z,15.92
2019-03-23T19:11:32.197Z,15.92
2019-03-23T19:13:38.081Z,15.85
2019-03-23T19:15:42.640Z,15.75
2019-03-23T19:17:48.373Z,15.61
2019-03-23T19:19:52.751Z,15.41
2019-03-23T19:21:57.116Z,15.16
2019-03-23T19:24:01.445Z,15.14
2019-03-23T19:26:06.844Z,15.04
2019-03-23T19:28:11.287Z,14.98
2019-03-23T19:30:15.916Z,14.98
2019-03-23T19:32:20.227Z,14.95
2019-03-23T19:34:24.555Z,14.75
2019-03-23T19:36:28.858Z,14.63
2019-03-23T19:38:34.209Z,14.50
2019-03-23T19:40:38.579Z,14.49
2019-03-23T19:42:42.960Z,14.50
2019-03-23T19:44:48.287Z,14.44
2019-03-23T19:46:52.756Z,14.43
2019-03-23T19:48:57.102Z,14.32
2019-03-23T19:51:03.710Z,14.26
2019-03-23T19:53:07.486Z,14.28
2019-03-23T19:55:11.935Z,14.35
2019-03-23T19:57:16.355Z,14.39
2019-03-23T19:59:20.728Z,14.35
2019-03-23T20:01:25.119Z,14.32
2019-03-23T20:03:29.460Z,14.32
2019-03-23T20:05:33.782Z,14.25
2019-03-23T20:07:40.223Z,14.17
2019-03-23T20:09:45.568Z,13.98
2019-03-23T20:11:50.926Z,13.93
2019-03-23T20:13:59.047Z,13.91
2019-03-23T20:16:01.400Z,13.86
2019-03-23T20:18:06.079Z,13.86
2019-03-23T20:20:11.187Z,13.89
2019-03-23T20:22:15.653Z,13.85
2019-03-23T20:24:20.044Z,13.84
2019-03-23T20:26:24.433Z,13.79
2019-03-23T20:28:28.778Z,13.73
2019-03-23T20:30:34.175Z,13.68
2019-03-23T20:32:38.574Z,13.62
2019-03-23T20:34:42.883Z,13.60
2019-03-23T20:36:47.255Z,13.57
2019-03-23T20:38:51.625Z,13.56
2019-03-23T20:40:56.026Z,13.53
2019-03-23T20:43:00.383Z,13.50
2019-03-23T20:45:05.357Z,13.48
2019-03-23T20:47:09.979Z,13.47
2019-03-23T20:49:16.219Z,13.45
2019-03-23T20:51:20.792Z,13.42
2019-03-23T20:53:31.018Z,13.34
2019-03-23T20:55:36.377Z,13.28
2019-03-23T20:57:40.705Z,13.18
2019-03-23T20:59:46.033Z,13.13
2019-03-23T21:01:50.495Z,13.09
2019-03-23T21:03:54.949Z,13.04
2019-03-23T21:05:59.286Z,13.00
2019-03-23T21:08:03.734Z,13.00
2019-03-23T21:10:08.207Z,12.97
2019-03-23T21:12:12.643Z,12.98
2019-03-23T21:14:20.465Z,12.95
2019-03-23T21:16:24.128Z,12.94
2019-03-23T21:18:28.492Z,12.95
2019-03-23T21:20:32.960Z,12.96
2019-03-23T21:22:37.309Z,12.95
2019-03-23T21:24:41.624Z,12.95
2019-03-23T21:26:46.061Z,12.95
2019-03-23T21:28:51.637Z,12.92
2019-03-23T21:30:57.146Z,12.89
2019-03-23T21:33:01.607Z,12.88
2019-03-23T21:35:06.407Z,12.86
2019-03-23T21:37:10.835Z,12.85
2019-03-23T21:39:15.218Z,12.81
2019-03-23T21:41:19.622Z,12.79
2019-03-23T21:43:24.941Z,12.74
2019-03-23T21:45:29.349Z,12.70
2019-03-23T21:47:33.839Z,12.68
2019-03-23T21:49:38.200Z,12.66
2019-03-23T21:51:42.566Z,12.62
2019-03-23T21:53:47.023Z,12.60
2019-03-23T21:55:52.451Z,12.57
2019-03-23T21:57:57.975Z,12.54
2019-03-23T22:00:02.348Z,12.52
2019-03-23T22:02:06.665Z,12.48
2019-03-23T22:04:11.129Z,12.44
2019-03-23T22:06:15.516Z,12.40
2019-03-23T22:08:19.900Z,12.36
2019-03-23T22:10:25.304Z,12.33
2019-03-23T22:12:29.745Z,12.32
2019-03-23T22:14:41.530Z,12.28
2019-03-23T22:16:41.312Z,12.24
2019-03-23T22:18:45.720Z,12.20
2019-03-23T22:20:50.124Z,12.14
2019-03-23T22:22:54.578Z,12.06
2019-03-23T22:24:58.924Z,12.02
2019-03-23T22:27:03.358Z,11.96
2019-03-23T22:29:07.734Z,11.96
2019-03-23T22:31:12.082Z,11.90
2019-03-23T22:33:16.464Z,11.82
2019-03-23T22:35:20.882Z,11.81
2019-03-23T22:37:26.285Z,11.81
2019-03-23T22:39:30.625Z,11.79
2019-03-23T22:41:34.986Z,11.75
2019-03-23T22:43:39.307Z,11.73
2019-03-23T22:45:43.654Z,11.71
2019-03-23T22:47:48.080Z,11.65
2019-03-23T22:49:52.440Z,11.61
2019-03-23T22:51:56.760Z,11.47
2019-03-23T22:54:02.146Z,11.37
2019-03-23T22:56:06.586Z,11.28
2019-03-23T22:58:10.935Z,11.23
2019-03-23T23:00:18.282Z,11.18
2019-03-23T23:02:23.692Z,11.10
2019-03-23T23:04:28.156Z,11.01
2019-03-23T23:06:32.494Z,10.96
2019-03-23T23:08:36.871Z,10.90
2019-03-23T23:10:42.320Z,10.88
2019-03-23T23:12:46.680Z,10.90
2019-03-23T23:14:52.648Z,10.94
2019-03-23T23:16:58.329Z,10.95
2019-03-23T23:19:02.680Z,10.94
2019-03-23T23:21:06.994Z,10.90
2019-03-23T23:23:11.367Z,10.84
2019-03-23T23:25:15.795Z,10.77
2019-03-23T23:27:21.159Z,10.71
2019-03-23T23:29:25.560Z,10.60
2019-03-23T23:31:29.918Z,10.49
2019-03-23T23:33:34.226Z,10.45
2019-03-23T23:35:38.711Z,10.40
2019-03-23T23:37:44.080Z,10.34
2019-03-23T23:39:48.375Z,10.29
2019-03-23T23:41:52.711Z,10.23
2019-03-23T23:43:58.030Z,10.14
2019-03-23T23:46:02.364Z,10.12
2019-03-23T23:48:06.725Z,10.08
2019-03-23T23:50:12.463Z,9.98
2019-03-23T23:52:16.829Z,9.97
2019-03-23T23:54:21.168Z,9.93
2019-03-23T23:56:25.473Z,9.93
2019-03-23T23:58:29.762Z,9.91
